createdAt,value
2023-04-02T00:00:04.101Z,15.73
2023-04-02T00:03:22.686Z,15.66
2023-04-02T00:06:33.385Z,15.70
2023-04-02T00:09:38.427Z,15.67
2023-04-02T00:12:41.190Z,15.54
2023-04-02T00:15:46.820Z,15.63
2023-04-02T00:18:55.767Z,15.60
2023-04-02T00:22:00.743Z,15.53
2023-04-02T00:25:13.652Z,15.56
2023-04-02T00:28:21.348Z,15.52
2023-04-02T00:31:24.748Z,15.54
2023-04-02T00:34:37.900Z,15.50
2023-04-02T00:37:42.133Z,15.53
2023-04-02T00:40:45.017Z,15.36
2023-04-02T00:43:53.227Z,15.47
2023-04-02T00:46:58.561Z,15.42
2023-04-02T00:50:23.573Z,15.49
2023-04-02T00:53:30.337Z,15.47
2023-04-02T00:56:55.029Z,15.36
2023-04-02T01:00:01.387Z,15.43
2023-04-02T01:03:16.732Z,15.42
2023-04-02T01:06:19.325Z,15.32
2023-04-02T01:09:39.429Z,15.40
2023-04-02T01:12:58.826Z,15.39
2023-04-02T01:16:11.632Z,15.32
2023-04-02T01:19:23.261Z,15.38
2023-04-02T01:22:55.446Z,15.34
2023-04-02T01:26:03.496Z,15.31
2023-04-02T01:29:24.297Z,15.33
2023-04-02T01:32:30.597Z,15.16
2023-04-02T01:35:38.897Z,15.23
2023-04-02T01:38:52.398Z,15.28
2023-04-02T01:42:09.812Z,15.14
2023-04-02T01:45:18.255Z,15.22
2023-04-02T01:48:30.085Z,15.23
2023-04-02T01:51:34.870Z,15.16
2023-04-02T01:54:40.813Z,15.34
2023-04-02T01:57:49.407Z,15.19
2023-04-02T02:01:00.989Z,15.18
2023-04-02T02:04:06.139Z,15.04
2023-04-02T02:07:16.936Z,15.11
2023-04-02T02:10:28.236Z,15.10
2023-04-02T02:13:32.456Z,14.98
2023-04-02T02:16:42.468Z,14.96
2023-04-02T02:20:11.900Z,15.07
2023-04-02T02:23:15.522Z,14.86
2023-04-02T02:26:18.837Z,14.99
2023-04-02T02:29:24.390Z,14.95
2023-04-02T02:32:33.167Z,14.94
2023-04-02T02:35:39.401Z,15.00
2023-04-02T02:38:57.104Z,14.94
2023-04-02T02:42:28.642Z,15.02
2023-04-02T02:45:38.406Z,14.99
2023-04-02T02:48:42.608Z,14.88
2023-04-02T02:51:59.002Z,14.98
2023-04-02T02:55:12.926Z,14.94
2023-04-02T02:58:33.489Z,14.86
2023-04-02T03:01:45.252Z,14.85
2023-04-02T03:04:53.655Z,14.81
2023-04-02T03:08:02.614Z,14.83
2023-04-02T03:11:12.599Z,14.74
2023-04-02T03:14:38.118Z,14.91
2023-04-02T03:17:56.886Z,14.89
2023-04-02T03:21:31.471Z,14.81
2023-04-02T03:24:42.363Z,14.88
2023-04-02T03:27:49.427Z,14.75
2023-04-02T03:30:59.460Z,14.82
2023-04-02T03:34:11.542Z,14.74
2023-04-02T03:37:26.688Z,14.87
2023-04-02T03:40:35.073Z,14.73
2023-04-02T03:43:42.869Z,14.81
2023-04-02T03:46:57.822Z,14.64
2023-04-02T03:50:19.030Z,14.65
2023-04-02T03:53:24.580Z,14.77
2023-04-02T03:56:29.837Z,14.76
2023-04-02T03:59:47.892Z,14.61
2023-04-02T04:02:57.618Z,14.62
2023-04-02T04:06:12.057Z,14.72
2023-04-02T04:09:33.607Z,14.64
2023-04-02T04:12:41.146Z,14.61
2023-04-02T04:15:56.605Z,14.66
2023-04-02T04:19:06.680Z,14.58
2023-04-02T04:22:10.831Z,14.59
2023-04-02T04:25:26.031Z,14.56
2023-04-02T04:28:38.879Z,14.60
2023-04-02T04:31:47.706Z,14.72
2023-04-02T04:34:53.587Z,14.61
2023-04-02T04:38:15.053Z,14.70
2023-04-02T04:41:24.976Z,14.63
2023-04-02T04:44:51.925Z,14.70
2023-04-02T04:48:00.620Z,14.75
2023-04-02T04:51:17.573Z,14.66
2023-04-02T04:54:22.510Z,14.63
2023-04-02T04:57:36.964Z,14.83
2023-04-02T05:00:57.101Z,14.78
2023-04-02T05:04:31.593Z,14.93
2023-04-02T05:07:48.521Z,14.97
2023-04-02T05:11:06.063Z,14.91
2023-04-02T05:14:21.313Z,15.05
2023-04-02T05:17:29.726Z,15.21
2023-04-02T05:20:55.172Z,15.39
2023-04-02T05:24:26.249Z,15.57
2023-04-02T05:27:48.739Z,15.73
2023-04-02T05:31:03.252Z,15.81
2023-04-02T05:34:08.149Z,15.84
2023-04-02T05:37:19.571Z,15.93
2023-04-02T05:40:46.913Z,15.98
2023-04-02T05:43:56.382Z,15.99
2023-04-02T05:47:25.450Z,16.28
2023-04-02T05:50:37.038Z,16.51
2023-04-02T05:53:51.192Z,16.86
2023-04-02T05:57:03.509Z,17.52
2023-04-02T06:00:13.052Z,18.20
2023-04-02T06:03:29.256Z,18.89
2023-04-02T06:06:42.617Z,19.52
2023-04-02T06:09:56.800Z,19.86
2023-04-02T06:13:06.960Z,20.30
2023-04-02T06:16:16.412Z,20.71
2023-04-02T06:19:31.654Z,20.97
2023-04-02T06:22:40.357Z,21.29
2023-04-02T06:25:50.468Z,21.44
2023-04-02T06:29:25.277Z,21.63
2023-04-02T06:32:29.923Z,21.42
2023-04-02T06:35:41.338Z,21.14
2023-04-02T06:38:45.398Z,20.72
2023-04-02T06:41:55.986Z,20.45
2023-04-02T06:45:06.513Z,20.16
2023-04-02T06:48:23.245Z,19.94
2023-04-02T06:51:33.251Z,19.87
2023-04-02T06:54:38.129Z,19.77
2023-04-02T06:57:43.363Z,19.65
2023-04-02T07:00:51.399Z,19.58
2023-04-02T07:04:04.796Z,19.43
2023-04-02T07:07:13.329Z,19.43
2023-04-02T07:10:20.301Z,19.42
2023-04-02T07:13:25.306Z,19.28
2023-04-02T07:16:31.424Z,19.31
2023-04-02T07:19:33.191Z,19.20
2023-04-02T07:22:35.123Z,19.12
2023-04-02T07:25:38.340Z,19.06
2023-04-02T07:28:40.597Z,19.07
2023-04-02T07:31:43.950Z,19.02
2023-04-02T07:34:46.393Z,18.98
2023-04-02T07:37:49.183Z,18.83
2023-04-02T07:40:51.464Z,18.93
2023-04-02T07:43:54.536Z,18.84
2023-04-02T07:46:59.300Z,18.85
2023-04-02T07:50:02.616Z,18.87
2023-04-02T07:53:07.658Z,18.87
2023-04-02T07:56:15.531Z,18.83
2023-04-02T07:59:21.248Z,18.92
2023-04-02T08:02:24.236Z,18.77
2023-04-02T08:05:28.368Z,18.88
2023-04-02T08:08:31.024Z,18.91
2023-04-02T08:11:33.791Z,18.95
2023-04-02T08:14:36.068Z,18.69
2023-04-02T08:17:38.877Z,18.94
2023-04-02T08:20:42.259Z,18.97
2023-04-02T08:23:45.210Z,18.95
2023-04-02T08:26:49.298Z,18.93
2023-04-02T08:29:52.361Z,18.95
2023-04-02T08:32:54.657Z,18.96
2023-04-02T08:35:57.573Z,18.91
2023-04-02T08:38:59.874Z,18.79
2023-04-02T08:42:24.572Z,18.98
2023-04-02T08:45:59.873Z,19.07
2023-04-02T08:49:05.769Z,19.12
2023-04-02T08:52:32.652Z,18.73
2023-04-02T08:55:43.466Z,17.96
2023-04-02T08:58:59.552Z,17.39
2023-04-02T09:02:32.462Z,17.15
2023-04-02T09:05:39.855Z,16.93
2023-04-02T17:16:44.336Z,11.75
2023-04-02T17:19:51.064Z,11.89
